Time;durP1;ratioP1;P1;durP2;ratioP2;P2;SDS_P1;SDS_P2;PMS_P1;PMS_P2;Temp;Humidity;BMP_temperature;BMP_pressure;BME280_temperature;BME280_humidity;BME280_pressure;Samples;Min_cycle;Max_cycle;Signal;HPM_P1;HPM_P2
2021/12/20 00:01:02;;;;;;;;;;;21.00;45.80;;;;;;5113347;27;20371;-56
2021/12/20 00:03:29;;;;;;;;;;;21.00;45.80;;;;;;5114736;28;20002;-48
2021/12/20 00:05:56;;;;;;;;;;;21.00;45.90;;;;;;5114753;28;19923;-51
2021/12/20 00:08:23;;;;;;;;;;;21.00;45.90;;;;;;5114598;28;19932;-48
2021/12/20 00:10:50;;;;;;;;;;;21.00;45.90;;;;;;5114654;28;19985;-52
2021/12/20 00:13:17;;;;;;;;;;;21.00;46.50;;;;;;5114266;28;19969;-57
2021/12/20 00:15:45;;;;;;;;;;;21.00;46.00;;;;;;5095584;28;20369;-49
2021/12/20 00:18:12;;;;;;;;;;;21.00;46.00;;;;;;5114275;28;19972;-54
2021/12/20 00:20:39;;;;;;;;;;;21.00;46.00;;;;;;5114574;28;20006;-51
2021/12/20 00:23:06;;;;;;;;;;;21.00;46.10;;;;;;5114036;28;19982;-53
2021/12/20 00:25:33;;;;;;;;;;;21.00;46.10;;;;;;5114172;28;19969;-53
2021/12/20 00:28:00;;;;;;;;;;;21.00;46.10;;;;;;5114494;28;19927;-54
2021/12/20 00:30:27;;;;;;;;;;;21.00;46.20;;;;;;5113006;28;19928;-52
2021/12/20 00:32:54;;;;;;;;;;;21.00;46.20;;;;;;5096037;28;19923;-51
2021/12/20 00:35:25;;;;;;;;;;;21.00;46.20;;;;;;5114094;28;20436;-56
2021/12/20 00:40:38;;;;;;;;;;;21.00;46.30;;;;;;5114095;28;20401;-57
2021/12/20 00:43:06;;;;;;;;;;;21.00;46.30;;;;;;5114032;28;19980;-50
2021/12/20 00:45:34;;;;;;;;;;;21.00;46.30;;;;;;5113093;28;19935;-55
2021/12/20 00:48:02;;;;;;;;;;;21.00;46.40;;;;;;5114311;28;20336;-54
2021/12/20 00:50:30;;;;;;;;;;;21.00;46.40;;;;;;5113961;28;19928;-53
2021/12/20 00:52:57;;;;;;;;;;;21.00;46.40;;;;;;5096030;28;19977;-53
2021/12/20 00:55:26;;;;;;;;;;;21.00;46.40;;;;;;5114217;28;19928;-55
2021/12/20 00:57:53;;;;;;;;;;;21.00;46.50;;;;;;5115328;28;19924;-52
2021/12/20 01:00:22;;;;;;;;;;;20.90;46.40;;;;;;5117905;28;19928;-52
2021/12/20 01:02:50;;;;;;;;;;;21.00;46.50;;;;;;5099709;28;20015;-56
2021/12/20 01:05:18;;;;;;;;;;;21.00;46.50;;;;;;5118219;28;20354;-47
2021/12/20 01:07:45;;;;;;;;;;;20.90;46.50;;;;;;5117968;28;19993;-50
2021/12/20 01:10:12;;;;;;;;;;;21.00;46.60;;;;;;5118066;28;19969;-56
2021/12/20 01:12:48;;;;;;;;;;;21.00;47.20;;;;;;5117719;28;19976;-50
2021/12/20 01:15:20;;;;;;;;;;;21.00;46.60;;;;;;5117967;28;20267;-51
2021/12/20 01:17:48;;;;;;;;;;;20.90;46.50;;;;;;5098737;28;19924;-55
2021/12/20 01:20:15;;;;;;;;;;;20.90;46.60;;;;;;5117859;28;20062;-54
2021/12/20 01:22:43;;;;;;;;;;;20.90;46.60;;;;;;5099233;28;19928;-50
2021/12/20 01:25:11;;;;;;;;;;;21.00;46.70;;;;;;5099404;28;19924;-51
2021/12/20 01:27:38;;;;;;;;;;;20.90;46.60;;;;;;5117730;28;19974;-55
2021/12/20 01:30:06;;;;;;;;;;;20.90;46.70;;;;;;5117380;28;19923;-52
2021/12/20 01:32:33;;;;;;;;;;;20.90;46.70;;;;;;5116171;27;19928;-51
2021/12/20 01:35:01;;;;;;;;;;;20.90;46.70;;;;;;5117255;28;19924;-53
2021/12/20 01:37:28;;;;;;;;;;;20.90;46.80;;;;;;5082668;28;19931;-51
2021/12/20 01:39:58;;;;;;;;;;;20.90;46.80;;;;;;5117172;28;19931;-51
2021/12/20 01:42:27;;;;;;;;;;;20.90;46.80;;;;;;5099385;28;19976;-56
2021/12/20 01:44:56;;;;;;;;;;;20.90;46.80;;;;;;5117082;28;19924;-50
2021/12/20 01:47:29;;;;;;;;;;;20.90;46.80;;;;;;5115738;27;19952;-52
2021/12/20 01:50:06;;;;;;;;;;;20.90;46.90;;;;;;5117368;28;19974;-55
2021/12/20 01:52:41;;;;;;;;;;;20.90;46.90;;;;;;5117149;28;19923;-57
2021/12/20 01:55:11;;;;;;;;;;;20.90;47.00;;;;;;5117170;28;19923;-56
2021/12/20 01:57:38;;;;;;;;;;;20.90;47.00;;;;;;5117171;28;19931;-52
2021/12/20 02:00:07;;;;;;;;;;;20.90;47.00;;;;;;5117103;28;19931;-55
2021/12/20 02:02:34;;;;;;;;;;;20.90;47.00;;;;;;5115831;28;19927;-55
2021/12/20 02:05:13;;;;;;;;;;;20.90;47.00;;;;;;5116722;28;19928;-51
2021/12/20 02:08:13;;;;;;;;;;;20.90;47.00;;;;;;5116894;28;20028;-55
2021/12/20 02:10:43;;;;;;;;;;;20.90;47.00;;;;;;5116024;28;19927;-55
2021/12/20 02:13:14;;;;;;;;;;;20.90;47.10;;;;;;5116573;28;20386;-56
2021/12/20 02:15:41;;;;;;;;;;;20.90;47.00;;;;;;5116498;28;19976;-56
2021/12/20 02:18:09;;;;;;;;;;;20.90;47.70;;;;;;5115699;28;19923;-56
2021/12/20 02:20:36;;;;;;;;;;;20.90;47.10;;;;;;5098442;28;20386;-51
2021/12/20 02:23:04;;;;;;;;;;;20.90;47.10;;;;;;5116093;28;19927;-53
2021/12/20 02:25:32;;;;;;;;;;;20.90;47.20;;;;;;5116644;28;19928;-53
2021/12/20 02:28:03;;;;;;;;;;;20.90;47.20;;;;;;5116565;28;20340;-56
2021/12/20 02:38:33;;;;;;;;;;;20.90;47.20;;;;;;5115977;28;19923;-57
2021/12/20 02:41:04;;;;;;;;;;;20.90;47.20;;;;;;5098264;28;19924;-56
2021/12/20 02:43:35;;;;;;;;;;;20.90;47.30;;;;;;5116352;28;20340;-48
2021/12/20 02:46:05;;;;;;;;;;;20.90;47.30;;;;;;5116262;28;19955;-48
2021/12/20 02:48:32;;;;;;;;;;;20.90;47.30;;;;;;5114708;28;20412;-52
2021/12/20 02:50:59;;;;;;;;;;;20.90;47.30;;;;;;5116138;28;19927;-53
2021/12/20 02:53:26;;;;;;;;;;;20.90;47.30;;;;;;5115943;28;20002;-49
2021/12/20 02:55:53;;;;;;;;;;;20.90;47.40;;;;;;5115719;28;19970;-50
2021/12/20 02:58:20;;;;;;;;;;;20.90;47.30;;;;;;5115974;28;20027;-58
2021/12/20 03:00:47;;;;;;;;;;;20.90;47.40;;;;;;5115915;28;19973;-51
2021/12/20 03:03:14;;;;;;;;;;;20.90;47.40;;;;;;5114681;27;19962;-57
2021/12/20 03:05:41;;;;;;;;;;;20.90;47.40;;;;;;5115542;28;20386;-55
2021/12/20 03:08:08;;;;;;;;;;;20.90;47.40;;;;;;5115368;28;20324;-49
2021/12/20 03:10:39;;;;;;;;;;;20.90;47.40;;;;;;5115709;28;20002;-55
2021/12/20 03:13:06;;;;;;;;;;;20.90;47.40;;;;;;5116265;28;19975;-54
2021/12/20 03:15:33;;;;;;;;;;;20.90;47.50;;;;;;5115247;28;20391;-50
2021/12/20 03:18:00;;;;;;;;;;;20.90;47.50;;;;;;5114462;27;20314;-57
2021/12/20 03:20:27;;;;;;;;;;;20.90;47.50;;;;;;5115222;28;19923;-54
2021/12/20 03:22:54;;;;;;;;;;;20.90;47.50;;;;;;5114407;28;19931;-52
2021/12/20 03:25:21;;;;;;;;;;;20.90;47.50;;;;;;5115173;28;19953;-54
2021/12/20 03:27:48;;;;;;;;;;;20.80;47.50;;;;;;5115405;28;19952;-51
2021/12/20 03:30:15;;;;;;;;;;;20.80;47.50;;;;;;5115049;28;20383;-57
2021/12/20 03:32:42;;;;;;;;;;;20.80;47.50;;;;;;5114070;28;20024;-54
2021/12/20 03:35:09;;;;;;;;;;;20.90;47.60;;;;;;5115187;28;19924;-54
2021/12/20 03:37:41;;;;;;;;;;;20.80;47.50;;;;;;5115146;28;19973;-53
2021/12/20 03:40:08;;;;;;;;;;;20.80;47.50;;;;;;5115191;28;20077;-50
2021/12/20 03:42:36;;;;;;;;;;;20.80;47.50;;;;;;5114806;28;20097;-52
2021/12/20 03:45:03;;;;;;;;;;;20.80;47.60;;;;;;5115065;28;20007;-51
2021/12/20 03:47:30;;;;;;;;;;;20.80;47.60;;;;;;5113786;28;19971;-54
2021/12/20 03:49:57;;;;;;;;;;;20.80;47.60;;;;;;5114689;28;19977;-52
2021/12/20 03:52:24;;;;;;;;;;;20.80;47.60;;;;;;5114770;28;19953;-49
2021/12/20 03:54:51;;;;;;;;;;;20.90;47.70;;;;;;5114832;28;19969;-49
2021/12/20 03:57:18;;;;;;;;;;;20.80;47.60;;;;;;5114867;28;20010;-53
2021/12/20 03:59:47;;;;;;;;;;;20.80;47.60;;;;;;5114886;28;19974;-49
2021/12/20 04:02:18;;;;;;;;;;;20.80;47.70;;;;;;5114506;28;19927;-50
2021/12/20 04:04:45;;;;;;;;;;;20.80;47.70;;;;;;5114202;28;19924;-57
2021/12/20 04:07:12;;;;;;;;;;;20.80;47.70;;;;;;5114355;28;19927;-50
2021/12/20 04:09:39;;;;;;;;;;;20.80;47.70;;;;;;5114406;28;19930;-50
2021/12/20 04:12:06;;;;;;;;;;;20.80;47.70;;;;;;5114678;28;19923;-56
2021/12/20 04:14:33;;;;;;;;;;;20.80;47.80;;;;;;5114243;28;19949;-56
2021/12/20 04:17:00;;;;;;;;;;;20.80;47.70;;;;;;5114642;28;20362;-55
2021/12/20 04:19:27;;;;;;;;;;;20.80;47.80;;;;;;5113464;27;19923;-57
2021/12/20 04:21:54;;;;;;;;;;;20.80;47.80;;;;;;5114353;28;19977;-58
2021/12/20 04:24:21;;;;;;;;;;;20.80;47.80;;;;;;5114126;28;20026;-57
2021/12/20 04:26:48;;;;;;;;;;;20.80;47.80;;;;;;5114213;28;19924;-54
2021/12/20 04:29:15;;;;;;;;;;;20.80;47.80;;;;;;5115016;28;20336;-58
2021/12/20 04:31:42;;;;;;;;;;;20.80;47.80;;;;;;5114460;28;19924;-51
2021/12/20 04:34:09;;;;;;;;;;;20.80;47.80;;;;;;5119404;27;20348;-56
2021/12/20 04:36:36;;;;;;;;;;;20.80;47.80;;;;;;5120819;28;19924;-58
2021/12/20 04:39:06;;;;;;;;;;;20.80;47.80;;;;;;5120949;28;20014;-49
2021/12/20 04:41:33;;;;;;;;;;;20.80;47.90;;;;;;5121190;28;19924;-53
2021/12/20 04:44:00;;;;;;;;;;;20.80;47.90;;;;;;5120860;28;19924;-53
2021/12/20 04:46:27;;;;;;;;;;;20.80;47.90;;;;;;5121141;28;20340;-58
2021/12/20 04:48:54;;;;;;;;;;;20.80;47.90;;;;;;5120005;27;20299;-54
2021/12/20 04:51:20;;;;;;;;;;;20.80;47.90;;;;;;5121104;28;20002;-52
2021/12/20 04:53:47;;;;;;;;;;;20.80;48.00;;;;;;5120928;28;20015;-53
2021/12/20 04:56:14;;;;;;;;;;;20.80;47.90;;;;;;5121542;28;19979;-52
2021/12/20 04:58:41;;;;;;;;;;;20.80;48.00;;;;;;5121551;28;19975;-50
2021/12/20 05:01:08;;;;;;;;;;;20.80;48.00;;;;;;5121032;28;20010;-51
2021/12/20 05:03:35;;;;;;;;;;;20.80;48.00;;;;;;5119712;27;20097;-48
2021/12/20 05:06:02;;;;;;;;;;;20.80;48.00;;;;;;5120659;28;19924;-57
2021/12/20 05:08:34;;;;;;;;;;;20.80;48.00;;;;;;5120519;28;19949;-50
2021/12/20 05:11:04;;;;;;;;;;;20.80;48.00;;;;;;5120677;28;19986;-52
2021/12/20 05:13:32;;;;;;;;;;;20.70;48.00;;;;;;5120548;28;19959;-56
2021/12/20 05:15:58;;;;;;;;;;;20.80;48.00;;;;;;5120748;28;19963;-54
2021/12/20 05:18:25;;;;;;;;;;;20.80;48.10;;;;;;5119600;27;19931;-57
2021/12/20 05:20:52;;;;;;;;;;;20.80;48.10;;;;;;5120513;28;20019;-50
2021/12/20 05:23:19;;;;;;;;;;;20.80;48.00;;;;;;5120127;28;19924;-48
2021/12/20 05:25:46;;;;;;;;;;;20.80;48.10;;;;;;5120485;28;20006;-52
2021/12/20 05:28:13;;;;;;;;;;;20.80;48.10;;;;;;5120716;28;19967;-56
2021/12/20 05:30:40;;;;;;;;;;;20.80;48.10;;;;;;5120740;28;19980;-49
2021/12/20 05:33:07;;;;;;;;;;;20.70;48.00;;;;;;5120403;28;19976;-46
2021/12/20 05:35:35;;;;;;;;;;;20.80;48.10;;;;;;5119359;27;20379;-53
2021/12/20 05:38:02;;;;;;;;;;;20.70;48.00;;;;;;5120436;28;19923;-55
2021/12/20 05:40:29;;;;;;;;;;;20.70;48.10;;;;;;5120340;28;20375;-54
2021/12/20 05:42:56;;;;;;;;;;;20.70;48.10;;;;;;5120644;28;19924;-56
2021/12/20 05:45:23;;;;;;;;;;;20.70;48.10;;;;;;5116746;28;20000;-46
2021/12/20 05:47:50;;;;;;;;;;;20.70;48.10;;;;;;5117360;28;19973;-51
2021/12/20 05:50:20;;;;;;;;;;;20.70;48.10;;;;;;5116041;27;20018;-56
2021/12/20 05:52:47;;;;;;;;;;;20.70;48.20;;;;;;5117143;28;19924;-52
2021/12/20 05:55:14;;;;;;;;;;;20.70;48.10;;;;;;5116891;28;19928;-55
2021/12/20 05:57:41;;;;;;;;;;;20.70;48.10;;;;;;5116904;28;19977;-49
2021/12/20 06:00:14;;;;;;;;;;;20.70;48.10;;;;;;5116798;28;19982;-52
2021/12/20 06:02:42;;;;;;;;;;;20.70;48.20;;;;;;5117125;28;19923;-50
2021/12/20 06:05:09;;;;;;;;;;;20.70;48.20;;;;;;5115746;27;19924;-56
2021/12/20 06:07:40;;;;;;;;;;;20.70;48.20;;;;;;5116555;28;19973;-51
2021/12/20 06:10:08;;;;;;;;;;;20.70;48.20;;;;;;5116972;28;20010;-55
2021/12/20 06:12:35;;;;;;;;;;;20.70;48.20;;;;;;5117361;28;20014;-56
2021/12/20 06:15:03;;;;;;;;;;;20.70;48.20;;;;;;5116773;28;19928;-52
2021/12/20 06:17:30;;;;;;;;;;;20.70;48.20;;;;;;5098508;28;19924;-54
2021/12/20 06:19:57;;;;;;;;;;;20.70;48.20;;;;;;5115923;27;20263;-55
2021/12/20 06:22:24;;;;;;;;;;;20.70;48.20;;;;;;5116179;28;19928;-53
2021/12/20 06:24:51;;;;;;;;;;;20.70;48.20;;;;;;5116317;28;20436;-51
2021/12/20 06:27:18;;;;;;;;;;;20.70;48.20;;;;;;5116613;28;19967;-50
2021/12/20 06:29:45;;;;;;;;;;;20.70;48.20;;;;;;5116053;28;20444;-53
2021/12/20 06:32:12;;;;;;;;;;;20.70;48.20;;;;;;5098514;28;19963;-50
2021/12/20 06:34:39;;;;;;;;;;;20.70;48.30;;;;;;5114764;28;19924;-47
2021/12/20 06:37:06;;;;;;;;;;;20.70;48.30;;;;;;5116288;28;19923;-56
2021/12/20 06:39:33;;;;;;;;;;;20.80;48.40;;;;;;5116307;28;19984;-50
2021/12/20 06:42:00;;;;;;;;;;;20.70;48.30;;;;;;5115850;28;19927;-51
2021/12/20 06:44:27;;;;;;;;;;;20.70;48.30;;;;;;5115951;28;20387;-49
2021/12/20 06:46:54;;;;;;;;;;;20.70;48.30;;;;;;5115802;28;19939;-50
2021/12/20 06:49:21;;;;;;;;;;;20.70;48.30;;;;;;5114975;27;19931;-55
2021/12/20 06:51:48;;;;;;;;;;;20.70;48.30;;;;;;5115640;28;20399;-49
2021/12/20 06:54:16;;;;;;;;;;;20.70;48.30;;;;;;5115037;28;19924;-49
2021/12/20 06:56:43;;;;;;;;;;;20.70;48.30;;;;;;5115684;28;19977;-56
2021/12/20 06:59:10;;;;;;;;;;;20.70;48.40;;;;;;5115636;28;19963;-53
2021/12/20 07:01:38;;;;;;;;;;;20.70;48.30;;;;;;5116759;28;20337;-52
2021/12/20 07:04:05;;;;;;;;;;;20.70;48.30;;;;;;5115843;28;19924;-53
2021/12/20 07:06:34;;;;;;;;;;;20.70;48.40;;;;;;5114581;27;20003;-51
2021/12/20 07:09:01;;;;;;;;;;;20.70;48.40;;;;;;5115422;28;20428;-54
2021/12/20 07:11:28;;;;;;;;;;;20.70;48.40;;;;;;5115391;28;19927;-56
2021/12/20 07:13:55;;;;;;;;;;;20.70;48.40;;;;;;5115323;28;19923;-50
2021/12/20 07:16:22;;;;;;;;;;;20.70;48.40;;;;;;5115572;28;20079;-51
2021/12/20 07:18:49;;;;;;;;;;;20.70;48.40;;;;;;5115244;28;20379;-56
2021/12/20 07:21:17;;;;;;;;;;;20.70;48.40;;;;;;5114247;27;20015;-54
2021/12/20 07:23:44;;;;;;;;;;;20.70;48.40;;;;;;5114771;28;19927;-53
2021/12/20 07:26:12;;;;;;;;;;;20.70;48.40;;;;;;5115978;28;19976;-55
2021/12/20 07:28:41;;;;;;;;;;;20.70;48.50;;;;;;5115328;28;19982;-53
2021/12/20 07:31:08;;;;;;;;;;;20.70;48.40;;;;;;5115008;28;19923;-50
2021/12/20 07:33:35;;;;;;;;;;;20.70;48.40;;;;;;5115231;28;19924;-54
2021/12/20 07:36:03;;;;;;;;;;;20.70;48.50;;;;;;5113946;28;19924;-55
2021/12/20 07:38:34;;;;;;;;;;;20.70;48.50;;;;;;5097362;28;19924;-54
2021/12/20 07:41:02;;;;;;;;;;;20.70;48.50;;;;;;5114812;28;19973;-48
2021/12/20 07:43:29;;;;;;;;;;;20.70;48.50;;;;;;5116002;28;19946;-47
2021/12/20 07:45:56;;;;;;;;;;;20.70;48.60;;;;;;5114696;28;19967;-57
2021/12/20 07:48:23;;;;;;;;;;;20.70;48.50;;;;;;5115820;28;19966;-51
2021/12/20 07:50:51;;;;;;;;;;;20.70;49.10;;;;;;5113862;28;19965;-55
2021/12/20 07:53:18;;;;;;;;;;;20.70;48.50;;;;;;5114531;28;19976;-54
2021/12/20 07:55:45;;;;;;;;;;;20.70;49.00;;;;;;5114553;28;19979;-51
2021/12/20 07:58:12;;;;;;;;;;;20.80;48.50;;;;;;5114893;28;19973;-56
2021/12/20 08:00:39;;;;;;;;;;;20.80;48.50;;;;;;5114517;28;19973;-51
2021/12/20 08:03:06;;;;;;;;;;;20.70;48.40;;;;;;5114746;28;19965;-54
2021/12/20 08:05:34;;;;;;;;;;;20.70;48.40;;;;;;5113296;28;19924;-54
2021/12/20 08:08:01;;;;;;;;;;;20.70;48.40;;;;;;5113716;28;19923;-54
2021/12/20 08:10:28;;;;;;;;;;;20.70;48.30;;;;;;5114697;28;19949;-51
2021/12/20 08:12:55;;;;;;;;;;;20.70;48.30;;;;;;5114342;28;19977;-48
2021/12/20 08:15:22;;;;;;;;;;;20.70;48.30;;;;;;5114481;28;19977;-53
2021/12/20 08:17:50;;;;;;;;;;;20.70;48.30;;;;;;5114391;28;19989;-57
2021/12/20 08:20:17;;;;;;;;;;;20.70;48.30;;;;;;5112874;28;19931;-55
2021/12/20 08:22:45;;;;;;;;;;;20.80;48.40;;;;;;5113878;28;20383;-52
2021/12/20 08:25:13;;;;;;;;;;;20.80;48.30;;;;;;5114509;28;19924;-51
2021/12/20 08:27:40;;;;;;;;;;;20.80;48.30;;;;;;5114479;28;19924;-54
2021/12/20 08:30:08;;;;;;;;;;;20.80;48.30;;;;;;5114476;28;19924;-54
2021/12/20 08:32:36;;;;;;;;;;;20.80;48.30;;;;;;5114062;28;19967;-55
2021/12/20 08:35:04;;;;;;;;;;;20.80;48.30;;;;;;5114260;28;20282;-50
2021/12/20 08:37:31;;;;;;;;;;;20.80;48.20;;;;;;5113608;28;19970;-56
2021/12/20 08:39:58;;;;;;;;;;;20.80;48.20;;;;;;5096149;28;19931;-56
2021/12/20 08:42:26;;;;;;;;;;;20.80;48.80;;;;;;5114024;28;20018;-54
2021/12/20 08:44:52;;;;;;;;;;;20.80;48.20;;;;;;5114318;28;19969;-52
2021/12/20 08:47:20;;;;;;;;;;;20.80;48.80;;;;;;5114332;28;19931;-54
2021/12/20 08:49:47;;;;;;;;;;;20.80;48.20;;;;;;5114260;28;19970;-53
2021/12/20 08:52:15;;;;;;;;;;;20.80;48.70;;;;;;5094976;28;20323;-51
2021/12/20 08:54:42;;;;;;;;;;;20.80;48.10;;;;;;5114253;28;20002;-54
2021/12/20 08:57:09;;;;;;;;;;;20.90;48.20;;;;;;5114102;28;19971;-50
2021/12/20 08:59:36;;;;;;;;;;;20.90;48.20;;;;;;5114169;28;19924;-55
2021/12/20 09:02:06;;;;;;;;;;;20.90;48.20;;;;;;5114116;28;19959;-56
2021/12/20 09:04:33;;;;;;;;;;;20.90;48.10;;;;;;5114149;28;20003;-51
2021/12/20 09:07:02;;;;;;;;;;;20.90;48.10;;;;;;5112476;28;20379;-52
2021/12/20 09:09:29;;;;;;;;;;;20.90;48.10;;;;;;5114049;28;19924;-55
2021/12/20 09:11:56;;;;;;;;;;;20.90;48.10;;;;;;5113583;28;20018;-54
2021/12/20 09:14:23;;;;;;;;;;;20.90;48.00;;;;;;5113914;28;20003;-51
2021/12/20 09:16:50;;;;;;;;;;;20.90;48.00;;;;;;5113496;28;19924;-56
2021/12/20 09:19:17;;;;;;;;;;;20.90;48.00;;;;;;5114369;28;19924;-52
2021/12/20 09:21:44;;;;;;;;;;;20.90;48.00;;;;;;5116742;28;19924;-54
2021/12/20 09:24:11;;;;;;;;;;;20.90;47.90;;;;;;5117672;28;19923;-53
2021/12/20 09:26:38;;;;;;;;;;;21.00;48.00;;;;;;5118512;28;20296;-57
2021/12/20 09:29:05;;;;;;;;;;;21.00;48.00;;;;;;5117619;28;19923;-50
2021/12/20 09:31:32;;;;;;;;;;;21.00;47.90;;;;;;5117341;28;19928;-51
2021/12/20 09:33:59;;;;;;;;;;;21.00;47.90;;;;;;5117264;28;19973;-52
2021/12/20 09:36:29;;;;;;;;;;;21.00;47.90;;;;;;5116210;27;20015;-56
2021/12/20 09:38:57;;;;;;;;;;;21.00;47.90;;;;;;5117516;28;20328;-55
2021/12/20 09:44:02;;;;;;;;;;;21.10;47.90;;;;;;5117189;28;19924;-56
2021/12/20 09:46:31;;;;;;;;;;;21.10;47.80;;;;;;5117113;28;19924;-57
2021/12/20 09:48:58;;;;;;;;;;;21.10;47.80;;;;;;5116855;28;19924;-56
2021/12/20 09:51:26;;;;;;;;;;;21.10;47.70;;;;;;5115988;28;20134;-54
2021/12/20 09:53:55;;;;;;;;;;;21.10;47.70;;;;;;5116778;28;19963;-49
2021/12/20 09:56:26;;;;;;;;;;;21.10;47.60;;;;;;5117169;28;19977;-57
2021/12/20 09:58:54;;;;;;;;;;;21.20;47.70;;;;;;5116869;28;19967;-54
2021/12/20 10:01:21;;;;;;;;;;;21.20;47.70;;;;;;5116808;28;20443;-53
2021/12/20 10:03:49;;;;;;;;;;;21.20;47.70;;;;;;5117042;28;19923;-49
2021/12/20 10:06:17;;;;;;;;;;;21.20;47.60;;;;;;5115891;27;19924;-55
2021/12/20 10:08:52;;;;;;;;;;;21.20;47.60;;;;;;5099005;28;20378;-48
2021/12/20 10:11:19;;;;;;;;;;;21.20;47.50;;;;;;5116677;28;19971;-50
2021/12/20 10:13:46;;;;;;;;;;;21.30;47.60;;;;;;5116801;28;19977;-59
2021/12/20 10:16:22;;;;;;;;;;;21.30;47.50;;;;;;5116433;28;19972;-53
2021/12/20 10:18:49;;;;;;;;;;;21.30;47.50;;;;;;5116547;28;19931;-55
2021/12/20 10:21:16;;;;;;;;;;;21.30;47.50;;;;;;5116264;27;19970;-55
2021/12/20 10:23:45;;;;;;;;;;;21.30;47.40;;;;;;5116022;27;19977;-54
2021/12/20 10:26:14;;;;;;;;;;;21.40;47.50;;;;;;5116634;28;20018;-53
2021/12/20 10:28:42;;;;;;;;;;;21.40;47.40;;;;;;5116411;28;19974;-53
2021/12/20 10:31:10;;;;;;;;;;;21.40;47.40;;;;;;5115744;28;19937;-52
2021/12/20 10:33:38;;;;;;;;;;;21.40;47.30;;;;;;5117025;28;20022;-58
2021/12/20 10:36:05;;;;;;;;;;;21.40;47.30;;;;;;5116059;28;20424;-55
2021/12/20 10:38:37;;;;;;;;;;;21.50;47.30;;;;;;5115398;27;20371;-58
2021/12/20 10:41:13;;;;;;;;;;;21.50;47.20;;;;;;5116378;28;19927;-56
2021/12/20 10:43:47;;;;;;;;;;;21.50;47.20;;;;;;5115913;28;20424;-52
2021/12/20 10:46:22;;;;;;;;;;;21.50;47.10;;;;;;5115891;28;20022;-56
2021/12/20 10:48:58;;;;;;;;;;;21.60;47.70;;;;;;5116181;28;20018;-53
2021/12/20 10:51:31;;;;;;;;;;;21.60;47.10;;;;;;5115828;28;19985;-52
2021/12/20 10:54:02;;;;;;;;;;;21.60;47.70;;;;;;5115538;27;19924;-55
2021/12/20 10:56:35;;;;;;;;;;;21.60;47.10;;;;;;5116002;28;19924;-56
2021/12/20 10:59:06;;;;;;;;;;;21.60;47.00;;;;;;5115974;28;19955;-55
2021/12/20 11:04:19;;;;;;;;;;;21.60;47.50;;;;;;5115495;28;19928;-54
2021/12/20 11:09:30;;;;;;;;;;;21.70;46.90;;;;;;5115867;28;19958;-57
2021/12/20 11:11:58;;;;;;;;;;;21.70;46.90;;;;;;5115824;28;19985;-57
2021/12/20 11:14:34;;;;;;;;;;;21.70;46.90;;;;;;5115706;28;20029;-58
2021/12/20 11:17:07;;;;;;;;;;;21.70;46.90;;;;;;5115336;28;19934;-55
2021/12/20 11:19:39;;;;;;;;;;;21.70;46.90;;;;;;5116161;28;19924;-56
2021/12/20 11:22:06;;;;;;;;;;;21.70;46.90;;;;;;5114044;27;19932;-55
2021/12/20 11:24:34;;;;;;;;;;;21.70;47.10;;;;;;5115229;28;20375;-55
2021/12/20 11:27:03;;;;;;;;;;;21.70;46.90;;;;;;5115501;28;20007;-57
2021/12/20 11:29:30;;;;;;;;;;;21.70;46.90;;;;;;5115494;28;19924;-54
2021/12/20 11:31:57;;;;;;;;;;;21.70;46.90;;;;;;5115403;28;19924;-54
2021/12/20 11:34:25;;;;;;;;;;;21.70;47.00;;;;;;5115064;28;20022;-52
2021/12/20 11:36:52;;;;;;;;;;;21.70;47.00;;;;;;5115087;28;19967;-55
2021/12/20 11:39:19;;;;;;;;;;;21.70;47.10;;;;;;5113741;28;20417;-52
2021/12/20 11:41:46;;;;;;;;;;;21.70;47.10;;;;;;5114342;28;20458;-54
2021/12/20 11:44:15;;;;;;;;;;;21.70;47.10;;;;;;5114646;28;19924;-56
2021/12/20 11:47:05;;;;;;;;;;;21.70;47.10;;;;;;5115142;28;19963;-55
2021/12/20 11:49:32;;;;;;;;;;;21.70;47.10;;;;;;5101920;28;19963;-55
2021/12/20 11:52:02;;;;;;;;;;;21.70;47.10;;;;;;5115756;28;19924;-51
2021/12/20 11:54:39;;;;;;;;;;;21.70;47.10;;;;;;5113842;27;19963;-56
2021/12/20 11:57:06;;;;;;;;;;;21.70;47.10;;;;;;5114557;28;19966;-55
2021/12/20 11:59:47;;;;;;;;;;;21.70;47.10;;;;;;5114852;28;20355;-51
2021/12/20 12:02:18;;;;;;;;;;;21.70;47.10;;;;;;5114524;28;19923;-55
2021/12/20 12:04:55;;;;;;;;;;;21.70;47.20;;;;;;5114816;28;20348;-55
2021/12/20 12:07:23;;;;;;;;;;;21.70;47.20;;;;;;5113919;28;20276;-51
2021/12/20 12:10:04;;;;;;;;;;;21.70;47.20;;;;;;5114047;28;19962;-56
2021/12/20 12:12:33;;;;;;;;;;;21.70;47.20;;;;;;5114344;28;19924;-51
2021/12/20 12:15:11;;;;;;;;;;;21.70;47.20;;;;;;5114379;28;19924;-57
2021/12/20 12:18:10;;;;;;;;;;;21.70;47.20;;;;;;5114305;28;19927;-52
2021/12/20 12:20:37;;;;;;;;;;;21.70;47.20;;;;;;5113628;28;20283;-49
2021/12/20 12:23:14;;;;;;;;;;;21.70;47.20;;;;;;5112809;28;19923;-53
2021/12/20 12:25:44;;;;;;;;;;;21.70;47.20;;;;;;5114588;28;19924;-53
2021/12/20 12:28:12;;;;;;;;;;;21.80;47.30;;;;;;5114147;28;19931;-57
2021/12/20 12:30:40;;;;;;;;;;;21.80;47.20;;;;;;5114437;28;19923;-53
2021/12/20 12:33:13;;;;;;;;;;;21.80;47.20;;;;;;5114968;28;20023;-51
2021/12/20 12:35:41;;;;;;;;;;;21.80;47.20;;;;;;5114074;28;19932;-53
2021/12/20 12:38:18;;;;;;;;;;;21.80;47.20;;;;;;5113079;28;19953;-49
2021/12/20 12:40:48;;;;;;;;;;;21.80;47.20;;;;;;5114339;28;19932;-53
2021/12/20 12:43:16;;;;;;;;;;;21.80;47.20;;;;;;5114388;28;19971;-57
2021/12/20 12:45:54;;;;;;;;;;;21.80;47.20;;;;;;5114853;28;19970;-55
2021/12/20 12:48:40;;;;;;;;;;;21.80;47.20;;;;;;5114067;28;19924;-53
2021/12/20 12:51:19;;;;;;;;;;;21.80;47.20;;;;;;5114292;28;20010;-49
2021/12/20 12:53:50;;;;;;;;;;;21.80;47.20;;;;;;5113868;28;19923;-53
2021/12/20 12:56:23;;;;;;;;;;;21.80;47.10;;;;;;5118050;28;19927;-54
2021/12/20 12:59:09;;;;;;;;;;;21.80;47.10;;;;;;5118102;28;19923;-46
2021/12/20 13:01:38;;;;;;;;;;;21.90;47.20;;;;;;5118011;28;20406;-48
2021/12/20 13:04:06;;;;;;;;;;;21.90;47.20;;;;;;5118788;28;19978;-49
2021/12/20 13:06:34;;;;;;;;;;;21.90;47.20;;;;;;5118078;28;20050;-52
2021/12/20 13:09:01;;;;;;;;;;;21.90;47.30;;;;;;5116607;28;19924;-50
2021/12/20 13:11:30;;;;;;;;;;;21.90;47.20;;;;;;5118100;28;19931;-58
2021/12/20 13:14:07;;;;;;;;;;;21.90;47.20;;;;;;5117800;28;19966;-54
2021/12/20 13:16:36;;;;;;;;;;;21.90;47.20;;;;;;5118056;28;20342;-56
2021/12/20 13:19:06;;;;;;;;;;;21.90;47.20;;;;;;5117702;28;20457;-52
2021/12/20 13:21:49;;;;;;;;;;;21.90;47.30;;;;;;5117700;28;19930;-54
2021/12/20 13:24:16;;;;;;;;;;;21.90;47.30;;;;;;5116484;27;19928;-54
2021/12/20 13:26:43;;;;;;;;;;;21.90;47.30;;;;;;5117578;28;20018;-48
2021/12/20 13:29:16;;;;;;;;;;;21.90;47.30;;;;;;5118682;28;19924;-48
2021/12/20 13:31:43;;;;;;;;;;;21.90;47.20;;;;;;5117441;28;19924;-54
2021/12/20 13:34:14;;;;;;;;;;;21.90;47.20;;;;;;5117367;28;20018;-52
2021/12/20 13:36:50;;;;;;;;;;;21.90;47.30;;;;;;5117151;28;19924;-48
2021/12/20 13:39:17;;;;;;;;;;;21.90;47.30;;;;;;5116432;28;20360;-53
2021/12/20 13:41:44;;;;;;;;;;;21.90;47.30;;;;;;5117529;28;19993;-51
2021/12/20 13:44:14;;;;;;;;;;;21.90;47.30;;;;;;5117411;28;20365;-55
2021/12/20 13:46:43;;;;;;;;;;;21.90;47.30;;;;;;5117067;28;19967;-51
2021/12/20 13:49:14;;;;;;;;;;;21.90;47.30;;;;;;5116692;28;19931;-50
2021/12/20 13:51:43;;;;;;;;;;;21.90;47.30;;;;;;5116774;28;20000;-53
2021/12/20 13:54:15;;;;;;;;;;;21.90;47.30;;;;;;5115795;27;19931;-53
2021/12/20 13:56:43;;;;;;;;;;;21.90;47.40;;;;;;5116868;28;20014;-52
2021/12/20 13:59:11;;;;;;;;;;;21.90;47.40;;;;;;5116799;28;20390;-51
2021/12/20 14:01:38;;;;;;;;;;;21.90;47.40;;;;;;5117089;28;19963;-48
2021/12/20 14:04:05;;;;;;;;;;;21.90;47.50;;;;;;5116724;28;20383;-55
2021/12/20 14:06:50;;;;;;;;;;;21.90;47.50;;;;;;5115947;28;19924;-54
2021/12/20 14:09:23;;;;;;;;;;;21.90;47.50;;;;;;5097502;28;20375;-52
2021/12/20 14:12:09;;;;;;;;;;;21.80;47.50;;;;;;5116622;28;20366;-52
2021/12/20 14:14:36;;;;;;;;;;;21.80;47.50;;;;;;5116951;28;19924;-57
2021/12/20 14:17:04;;;;;;;;;;;21.80;47.60;;;;;;5116478;28;19928;-51
2021/12/20 14:19:49;;;;;;;;;;;21.80;47.60;;;;;;5116532;28;19973;-53
2021/12/20 14:22:17;;;;;;;;;;;21.80;47.60;;;;;;5117062;28;20321;-57
2021/12/20 14:24:44;;;;;;;;;;;21.80;47.60;;;;;;5115450;27;20014;-51
2021/12/20 14:27:12;;;;;;;;;;;21.80;47.70;;;;;;5116347;28;20410;-48
2021/12/20 14:29:40;;;;;;;;;;;21.80;47.70;;;;;;5116601;28;19992;-52
2021/12/20 14:32:09;;;;;;;;;;;21.80;47.70;;;;;;5116391;28;19977;-50
2021/12/20 14:34:36;;;;;;;;;;;21.80;47.80;;;;;;5116206;28;19932;-52
2021/12/20 14:37:11;;;;;;;;;;;21.80;47.80;;;;;;5115965;28;19924;-58
2021/12/20 14:39:42;;;;;;;;;;;21.70;47.70;;;;;;5115487;27;19924;-53
2021/12/20 14:42:09;;;;;;;;;;;21.70;47.80;;;;;;5116045;28;20014;-58
2021/12/20 14:44:53;;;;;;;;;;;21.70;47.90;;;;;;5116022;28;19970;-53